sensor_id;sensor_type;location;lat;lon;timestamp;pressure;altitude;pressure_sealevel;temperature;humidity
56831;BME280;42713;42.676;23.352;2023-03-26T00:00:04;94300.34;;;10.49;63.30
56831;BME280;42713;42.676;23.352;2023-03-26T00:02:30;94296.41;;;10.47;63.68
56831;BME280;42713;42.676;23.352;2023-03-26T00:04:56;94307.00;;;10.35;64.03
56831;BME280;42713;42.676;23.352;2023-03-26T00:07:21;94291.28;;;10.30;64.61
56831;BME280;42713;42.676;23.352;2023-03-26T00:09:47;94315.53;;;10.20;63.70
56831;BME280;42713;42.676;23.352;2023-03-26T00:12:13;94326.72;;;10.15;64.33
56831;BME280;42713;42.676;23.352;2023-03-26T00:14:38;94323.81;;;10.06;64.47
56831;BME280;42713;42.676;23.352;2023-03-26T00:17:05;94300.25;;;10.06;64.51
56831;BME280;42713;42.676;23.352;2023-03-26T00:19:30;94293.94;;;10.02;65.11
56831;BME280;42713;42.676;23.352;2023-03-26T00:21:56;94291.81;;;9.99;64.71
56831;BME280;42713;42.676;23.352;2023-03-26T00:24:22;94276.13;;;9.99;64.73
56831;BME280;42713;42.676;23.352;2023-03-26T00:26:54;94275.31;;;9.99;64.74
56831;BME280;42713;42.676;23.352;2023-03-26T00:29:21;94275.13;;;10.05;64.88
56831;BME280;42713;42.676;23.352;2023-03-26T00:31:52;94281.47;;;10.15;64.37
56831;BME280;42713;42.676;23.352;2023-03-26T00:34:17;94289.13;;;10.21;64.22
56831;BME280;42713;42.676;23.352;2023-03-26T00:36:43;94271.34;;;10.23;63.56
56831;BME280;42713;42.676;23.352;2023-03-26T00:39:11;94272.38;;;10.22;63.59
56831;BME280;42713;42.676;23.352;2023-03-26T00:41:38;94276.81;;;10.22;63.82
56831;BME280;42713;42.676;23.352;2023-03-26T00:44:07;94264.53;;;10.22;63.67
56831;BME280;42713;42.676;23.352;2023-03-26T00:46:33;94265.56;;;10.21;63.58
56831;BME280;42713;42.676;23.352;2023-03-26T00:48:59;94272.31;;;10.17;63.62
56831;BME280;42713;42.676;23.352;2023-03-26T00:51:26;94286.50;;;10.21;63.20
56831;BME280;42713;42.676;23.352;2023-03-26T00:53:52;94276.25;;;10.15;63.69
56831;BME280;42713;42.676;23.352;2023-03-26T00:56:18;94279.34;;;10.11;63.44
56831;BME280;42713;42.676;23.352;2023-03-26T00:58:44;94277.81;;;10.16;63.14
56831;BME280;42713;42.676;23.352;2023-03-26T01:01:13;94274.09;;;10.06;62.87
56831;BME280;42713;42.676;23.352;2023-03-26T01:03:40;94275.66;;;10.07;62.78
56831;BME280;42713;42.676;23.352;2023-03-26T01:06:11;94285.03;;;10.03;62.90
56831;BME280;42713;42.676;23.352;2023-03-26T01:08:41;94275.13;;;10.05;61.79
56831;BME280;42713;42.676;23.352;2023-03-26T01:11:10;94280.38;;;10.10;62.25
56831;BME280;42713;42.676;23.352;2023-03-26T01:13:41;94280.91;;;10.07;61.65
56831;BME280;42713;42.676;23.352;2023-03-26T01:16:14;94290.75;;;10.00;62.09
56831;BME280;42713;42.676;23.352;2023-03-26T01:18:45;94280.06;;;10.02;62.67
56831;BME280;42713;42.676;23.352;2023-03-26T01:21:11;94280.38;;;10.10;62.82
56831;BME280;42713;42.676;23.352;2023-03-26T01:23:47;94288.75;;;10.07;62.61
56831;BME280;42713;42.676;23.352;2023-03-26T01:42:20;94289.31;;;9.82;63.91
56831;BME280;42713;42.676;23.352;2023-03-26T01:45:14;94306.78;;;9.76;64.33
56831;BME280;42713;42.676;23.352;2023-03-26T01:47:44;94311.63;;;9.62;65.84
56831;BME280;42713;42.676;23.352;2023-03-26T01:50:10;94310.50;;;9.58;65.49
56831;BME280;42713;42.676;23.352;2023-03-26T01:52:36;94317.41;;;9.64;65.88
56831;BME280;42713;42.676;23.352;2023-03-26T01:55:02;94312.75;;;9.72;65.25
56831;BME280;42713;42.676;23.352;2023-03-26T01:57:54;94316.50;;;9.81;65.21
56831;BME280;42713;42.676;23.352;2023-03-26T02:00:31;94309.19;;;9.83;65.30
56831;BME280;42713;42.676;23.352;2023-03-26T02:06:09;94308.38;;;9.77;65.31
56831;BME280;42713;42.676;23.352;2023-03-26T02:08:51;94310.25;;;9.82;65.59
56831;BME280;42713;42.676;23.352;2023-03-26T02:11:18;94307.84;;;9.80;65.90
56831;BME280;42713;42.676;23.352;2023-03-26T02:13:44;94297.38;;;9.80;65.84
56831;BME280;42713;42.676;23.352;2023-03-26T02:16:14;94318.09;;;9.82;65.82
56831;BME280;42713;42.676;23.352;2023-03-26T02:18:44;94314.72;;;9.87;66.08
56831;BME280;42713;42.676;23.352;2023-03-26T02:21:22;94301.28;;;9.78;65.94
56831;BME280;42713;42.676;23.352;2023-03-26T02:23:52;94309.59;;;9.70;66.58
56831;BME280;42713;42.676;23.352;2023-03-26T02:26:31;94310.63;;;9.69;66.67
56831;BME280;42713;42.676;23.352;2023-03-26T02:28:58;94306.59;;;9.61;66.74
56831;BME280;42713;42.676;23.352;2023-03-26T02:31:23;94314.78;;;9.64;66.97
56831;BME280;42713;42.676;23.352;2023-03-26T02:33:51;94309.63;;;9.47;67.51
56831;BME280;42713;42.676;23.352;2023-03-26T02:36:18;94317.66;;;9.41;67.84
56831;BME280;42713;42.676;23.352;2023-03-26T02:38:48;94314.25;;;9.40;67.63
56831;BME280;42713;42.676;23.352;2023-03-26T02:41:15;94313.34;;;9.29;68.00
56831;BME280;42713;42.676;23.352;2023-03-26T02:43:40;94317.16;;;9.22;68.24
56831;BME280;42713;42.676;23.352;2023-03-26T02:46:05;94311.28;;;9.31;68.08
56831;BME280;42713;42.676;23.352;2023-03-26T02:48:31;94323.00;;;9.29;67.98
56831;BME280;42713;42.676;23.352;2023-03-26T02:50:59;94334.00;;;9.31;67.87
56831;BME280;42713;42.676;23.352;2023-03-26T02:53:25;94343.97;;;9.34;68.34
56831;BME280;42713;42.676;23.352;2023-03-26T02:55:58;94333.47;;;9.29;68.55
56831;BME280;42713;42.676;23.352;2023-03-26T02:58:25;94339.94;;;9.26;68.96
56831;BME280;42713;42.676;23.352;2023-03-26T03:00:52;94339.94;;;9.26;69.01
56831;BME280;42713;42.676;23.352;2023-03-26T03:03:22;94344.75;;;9.12;69.57
56831;BME280;42713;42.676;23.352;2023-03-26T03:05:49;94343.72;;;9.13;69.36
56831;BME280;42713;42.676;23.352;2023-03-26T03:08:17;94352.56;;;9.12;69.35
56831;BME280;42713;42.676;23.352;2023-03-26T03:10:43;94335.56;;;9.10;68.96
56831;BME280;42713;42.676;23.352;2023-03-26T03:13:08;94353.59;;;9.11;68.64
56831;BME280;42713;42.676;23.352;2023-03-26T03:15:34;94332.81;;;8.99;68.69
56831;BME280;42713;42.676;23.352;2023-03-26T03:18:00;94338.94;;;8.88;69.64
56831;BME280;42713;42.676;23.352;2023-03-26T03:20:25;94352.09;;;8.93;69.31
56831;BME280;42713;42.676;23.352;2023-03-26T03:22:51;94347.56;;;8.88;69.34
56831;BME280;42713;42.676;23.352;2023-03-26T03:25:16;94349.94;;;8.90;69.38
56831;BME280;42713;42.676;23.352;2023-03-26T03:27:43;94389.06;;;8.85;69.75
56831;BME280;42713;42.676;23.352;2023-03-26T03:30:11;94361.41;;;8.89;69.52
56831;BME280;42713;42.676;23.352;2023-03-26T03:32:37;94372.97;;;8.93;69.05
56831;BME280;42713;42.676;23.352;2023-03-26T03:35:03;94365.31;;;8.86;69.01
56831;BME280;42713;42.676;23.352;2023-03-26T03:37:29;94361.81;;;8.81;69.22
56831;BME280;42713;42.676;23.352;2023-03-26T03:39:55;94383.03;;;8.84;69.29
56831;BME280;42713;42.676;23.352;2023-03-26T03:42:20;94348.00;;;8.80;69.41
56831;BME280;42713;42.676;23.352;2023-03-26T03:44:46;94347.44;;;8.78;69.42
56831;BME280;42713;42.676;23.352;2023-03-26T03:47:11;94362.25;;;8.72;69.20
56831;BME280;42713;42.676;23.352;2023-03-26T03:49:38;94351.31;;;8.76;69.27
56831;BME280;42713;42.676;23.352;2023-03-26T03:52:04;94354.56;;;8.83;69.12
56831;BME280;42713;42.676;23.352;2023-03-26T03:54:30;94361.91;;;8.86;68.99
56831;BME280;42713;42.676;23.352;2023-03-26T03:56:55;94367.00;;;8.76;69.17
56831;BME280;42713;42.676;23.352;2023-03-26T03:59:21;94366.19;;;8.75;69.85
56831;BME280;42713;42.676;23.352;2023-03-26T04:01:47;94364.38;;;8.76;69.65
56831;BME280;42713;42.676;23.352;2023-03-26T04:04:12;94367.53;;;8.78;69.40
56831;BME280;42713;42.676;23.352;2023-03-26T04:06:38;94361.22;;;8.74;69.83
56831;BME280;42713;42.676;23.352;2023-03-26T04:09:03;94362.84;;;8.80;69.35
56831;BME280;42713;42.676;23.352;2023-03-26T04:11:29;94375.75;;;8.86;69.02
56831;BME280;42713;42.676;23.352;2023-03-26T04:13:54;94380.50;;;8.90;69.03
56831;BME280;42713;42.676;23.352;2023-03-26T04:16:20;94391.00;;;8.95;68.82
56831;BME280;42713;42.676;23.352;2023-03-26T04:18:45;94397.75;;;8.91;68.58
56831;BME280;42713;42.676;23.352;2023-03-26T04:21:11;94403.44;;;8.87;69.28
56831;BME280;42713;42.676;23.352;2023-03-26T04:23:40;94412.22;;;8.98;68.76
56831;BME280;42713;42.676;23.352;2023-03-26T04:26:07;94416.25;;;8.89;69.12
56831;BME280;42713;42.676;23.352;2023-03-26T04:28:48;94425.22;;;8.93;69.41
56831;BME280;42713;42.676;23.352;2023-03-26T04:31:17;94427.59;;;8.95;69.24
56831;BME280;42713;42.676;23.352;2023-03-26T04:33:49;94443.09;;;9.01;68.99
56831;BME280;42713;42.676;23.352;2023-03-26T04:36:21;94441.19;;;8.97;68.91
56831;BME280;42713;42.676;23.352;2023-03-26T04:38:48;94444.84;;;8.96;68.79
56831;BME280;42713;42.676;23.352;2023-03-26T04:41:16;94444.53;;;8.75;69.41
56831;BME280;42713;42.676;23.352;2023-03-26T04:43:42;94449.13;;;8.68;70.14
56831;BME280;42713;42.676;23.352;2023-03-26T04:46:14;94452.66;;;8.79;69.65
56831;BME280;42713;42.676;23.352;2023-03-26T04:48:42;94447.03;;;8.87;68.89
56831;BME280;42713;42.676;23.352;2023-03-26T04:51:08;94455.22;;;8.74;69.19
56831;BME280;42713;42.676;23.352;2023-03-26T04:53:34;94467.16;;;8.69;69.43
56831;BME280;42713;42.676;23.352;2023-03-26T04:56:07;94454.66;;;8.71;68.99
56831;BME280;42713;42.676;23.352;2023-03-26T04:58:34;94458.22;;;8.65;69.19
56831;BME280;42713;42.676;23.352;2023-03-26T05:01:00;94452.28;;;8.70;68.50
56831;BME280;42713;42.676;23.352;2023-03-26T05:03:28;94460.34;;;8.68;68.44
56831;BME280;42713;42.676;23.352;2023-03-26T05:05:58;94456.69;;;8.69;67.86
56831;BME280;42713;42.676;23.352;2023-03-26T05:08:25;94466.22;;;8.76;68.01
56831;BME280;42713;42.676;23.352;2023-03-26T05:10:53;94462.91;;;8.80;67.27
56831;BME280;42713;42.676;23.352;2023-03-26T05:13:19;94474.06;;;8.76;67.39
56831;BME280;42713;42.676;23.352;2023-03-26T05:15:44;94466.53;;;8.79;67.06
56831;BME280;42713;42.676;23.352;2023-03-26T05:18:10;94461.16;;;8.86;66.69
56831;BME280;42713;42.676;23.352;2023-03-26T05:20:35;94463.84;;;8.91;66.24
56831;BME280;42713;42.676;23.352;2023-03-26T05:23:01;94465.72;;;8.96;65.87
56831;BME280;42713;42.676;23.352;2023-03-26T05:25:27;94506.34;;;8.86;66.27
56831;BME280;42713;42.676;23.352;2023-03-26T05:27:52;94493.91;;;8.77;66.98
56831;BME280;42713;42.676;23.352;2023-03-26T05:30:19;94477.19;;;8.78;67.42
56831;BME280;42713;42.676;23.352;2023-03-26T05:32:47;94480.47;;;8.85;67.38
56831;BME280;42713;42.676;23.352;2023-03-26T05:35:13;94506.03;;;8.83;67.41
56831;BME280;42713;42.676;23.352;2023-03-26T05:37:41;94480.84;;;8.77;67.84
56831;BME280;42713;42.676;23.352;2023-03-26T05:40:08;94474.75;;;8.71;68.28
56831;BME280;42713;42.676;23.352;2023-03-26T05:42:37;94470.06;;;8.73;68.44
56831;BME280;42713;42.676;23.352;2023-03-26T05:45:05;94495.16;;;8.74;68.49
56831;BME280;42713;42.676;23.352;2023-03-26T05:47:31;94500.88;;;8.71;68.30
56831;BME280;42713;42.676;23.352;2023-03-26T05:49:57;94488.53;;;8.66;68.77
56831;BME280;42713;42.676;23.352;2023-03-26T05:52:22;94486.63;;;8.62;68.65
56831;BME280;42713;42.676;23.352;2023-03-26T05:54:47;94489.44;;;8.60;68.94
56831;BME280;42713;42.676;23.352;2023-03-26T05:57:13;94495.22;;;8.62;69.08
56831;BME280;42713;42.676;23.352;2023-03-26T05:59:38;94509.88;;;8.63;68.81
56831;BME280;42713;42.676;23.352;2023-03-26T06:02:04;94487.41;;;8.62;69.31
56831;BME280;42713;42.676;23.352;2023-03-26T06:04:32;94477.91;;;8.73;68.44
56831;BME280;42713;42.676;23.352;2023-03-26T06:06:57;94478.25;;;8.77;68.43
56831;BME280;42713;42.676;23.352;2023-03-26T06:09:23;94476.03;;;8.85;67.84
56831;BME280;42713;42.676;23.352;2023-03-26T06:11:48;94472.84;;;8.83;67.59
56831;BME280;42713;42.676;23.352;2023-03-26T06:14:14;94477.31;;;9.00;67.33
56831;BME280;42713;42.676;23.352;2023-03-26T06:16:40;94468.19;;;9.02;66.11
56831;BME280;42713;42.676;23.352;2023-03-26T06:19:05;94469.28;;;9.07;64.63
56831;BME280;42713;42.676;23.352;2023-03-26T06:21:33;94470.16;;;9.12;64.51
56831;BME280;42713;42.676;23.352;2023-03-26T06:23:59;94482.19;;;9.13;64.01
56831;BME280;42713;42.676;23.352;2023-03-26T06:26:24;94481.88;;;9.10;64.22
56831;BME280;42713;42.676;23.352;2023-03-26T06:28:50;94486.00;;;9.06;64.50
56831;BME280;42713;42.676;23.352;2023-03-26T06:31:16;94480.22;;;9.03;64.07
56831;BME280;42713;42.676;23.352;2023-03-26T06:33:43;94476.59;;;9.05;64.34
56831;BME280;42713;42.676;23.352;2023-03-26T06:36:08;94488.28;;;9.02;63.56
56831;BME280;42713;42.676;23.352;2023-03-26T06:38:34;94467.16;;;9.03;64.95
56831;BME280;42713;42.676;23.352;2023-03-26T06:41:04;94485.34;;;9.15;64.63
56831;BME280;42713;42.676;23.352;2023-03-26T06:43:31;94494.63;;;9.23;63.88
56831;BME280;42713;42.676;23.352;2023-03-26T06:46:02;94484.09;;;9.18;62.93
56831;BME280;42713;42.676;23.352;2023-03-26T06:48:28;94476.66;;;9.27;63.40
56831;BME280;42713;42.676;23.352;2023-03-26T06:50:53;94474.09;;;9.32;63.29
56831;BME280;42713;42.676;23.352;2023-03-26T06:53:19;94472.28;;;9.32;62.17
56831;BME280;42713;42.676;23.352;2023-03-26T06:55:44;94510.69;;;9.32;62.45
56831;BME280;42713;42.676;23.352;2023-03-26T06:58:11;94503.00;;;9.42;62.22
56831;BME280;42713;42.676;23.352;2023-03-26T07:00:37;94492.78;;;9.41;62.04
56831;BME280;42713;42.676;23.352;2023-03-26T07:03:04;94507.19;;;9.43;61.29
56831;BME280;42713;42.676;23.352;2023-03-26T07:05:29;94510.34;;;9.45;61.16
56831;BME280;42713;42.676;23.352;2023-03-26T07:07:56;94512.81;;;9.52;61.10
56831;BME280;42713;42.676;23.352;2023-03-26T07:10:21;94515.91;;;9.49;61.25
56831;BME280;42713;42.676;23.352;2023-03-26T07:12:47;94503.94;;;9.53;61.29
56831;BME280;42713;42.676;23.352;2023-03-26T07:15:13;94508.59;;;9.68;61.52
56831;BME280;42713;42.676;23.352;2023-03-26T07:17:38;94521.72;;;9.73;60.25
56831;BME280;42713;42.676;23.352;2023-03-26T07:20:05;94519.97;;;9.79;59.15
56831;BME280;42713;42.676;23.352;2023-03-26T07:22:31;94496.16;;;9.80;59.33
56831;BME280;42713;42.676;23.352;2023-03-26T07:24:57;94492.16;;;9.73;59.87
56831;BME280;42713;42.676;23.352;2023-03-26T07:30:11;94487.47;;;9.75;59.96
56831;BME280;42713;42.676;23.352;2023-03-26T07:32:56;94484.97;;;9.85;59.49
56831;BME280;42713;42.676;23.352;2023-03-26T07:35:29;94485.31;;;9.89;59.93
56831;BME280;42713;42.676;23.352;2023-03-26T07:46:11;94486.88;;;10.12;57.18
56831;BME280;42713;42.676;23.352;2023-03-26T07:48:42;94493.06;;;10.06;57.37
56831;BME280;42713;42.676;23.352;2023-03-26T07:51:09;94490.22;;;10.07;57.76
56831;BME280;42713;42.676;23.352;2023-03-26T07:53:34;94489.44;;;10.07;57.42
56831;BME280;42713;42.676;23.352;2023-03-26T08:14:18;94469.25;;;10.52;55.26
56831;BME280;42713;42.676;23.352;2023-03-26T08:17:12;94473.91;;;10.72;51.78
56831;BME280;42713;42.676;23.352;2023-03-26T08:22:37;94470.72;;;10.70;51.80
56831;BME280;42713;42.676;23.352;2023-03-26T08:30:32;94475.97;;;10.70;47.80
56831;BME280;42713;42.676;23.352;2023-03-26T08:33:01;94494.84;;;10.72;49.09
56831;BME280;42713;42.676;23.352;2023-03-26T08:35:29;94480.47;;;10.74;49.21
56831;BME280;42713;42.676;23.352;2023-03-26T08:37:55;94476.59;;;10.82;50.46
56831;BME280;42713;42.676;23.352;2023-03-26T08:49:02;94474.66;;;11.05;50.15
56831;BME280;42713;42.676;23.352;2023-03-26T09:03:15;94465.34;;;11.19;47.99
56831;BME280;42713;42.676;23.352;2023-03-26T09:11:46;94474.31;;;11.29;48.31
56831;BME280;42713;42.676;23.352;2023-03-26T09:17:32;94491.50;;;11.14;46.96
56831;BME280;42713;42.676;23.352;2023-03-26T09:25:52;94446.25;;;11.29;47.25
56831;BME280;42713;42.676;23.352;2023-03-26T09:36:51;94469.31;;;11.70;45.27
56831;BME280;42713;42.676;23.352;2023-03-26T10:12:42;94423.84;;;12.23;42.83
56831;BME280;42713;42.676;23.352;2023-03-26T10:23:12;94405.47;;;12.18;40.24
56831;BME280;42713;42.676;23.352;2023-03-26T10:38:48;94365.56;;;12.41;38.77
56831;BME280;42713;42.676;23.352;2023-03-26T10:52:33;94346.41;;;12.72;38.67
56831;BME280;42713;42.676;23.352;2023-03-26T10:55:18;94361.88;;;12.89;38.13
56831;BME280;42713;42.676;23.352;2023-03-26T10:57:55;94345.31;;;12.88;37.30
56831;BME280;42713;42.676;23.352;2023-03-26T11:00:24;94341.38;;;12.96;37.21
56831;BME280;42713;42.676;23.352;2023-03-26T11:07:59;94346.03;;;13.25;36.63
56831;BME280;42713;42.676;23.352;2023-03-26T11:16:08;94333.91;;;13.34;34.61
56831;BME280;42713;42.676;23.352;2023-03-26T11:21:11;94321.75;;;13.49;34.54
56831;BME280;42713;42.676;23.352;2023-03-26T11:23:48;94327.50;;;13.61;33.73
56831;BME280;42713;42.676;23.352;2023-03-26T11:26:50;94320.88;;;13.69;33.26
56831;BME280;42713;42.676;23.352;2023-03-26T11:34:29;94311.47;;;14.03;32.29
56831;BME280;42713;42.676;23.352;2023-03-26T11:37:00;94298.53;;;14.06;32.38
56831;BME280;42713;42.676;23.352;2023-03-26T11:39:36;94294.13;;;13.96;32.51
56831;BME280;42713;42.676;23.352;2023-03-26T11:42:10;94301.03;;;13.87;32.83
56831;BME280;42713;42.676;23.352;2023-03-26T11:44:56;94299.16;;;13.93;33.39
56831;BME280;42713;42.676;23.352;2023-03-26T11:47:47;94290.41;;;14.03;32.94
56831;BME280;42713;42.676;23.352;2023-03-26T11:50:22;94279.34;;;14.00;33.18
56831;BME280;42713;42.676;23.352;2023-03-26T11:52:50;94276.56;;;14.21;31.91
56831;BME280;42713;42.676;23.352;2023-03-26T11:55:15;94268.59;;;14.31;29.82
56831;BME280;42713;42.676;23.352;2023-03-26T11:57:48;94261.97;;;14.34;30.96
56831;BME280;42713;42.676;23.352;2023-03-26T12:00:17;94244.56;;;14.38;30.09
56831;BME280;42713;42.676;23.352;2023-03-26T12:02:46;94227.25;;;14.56;30.95
56831;BME280;42713;42.676;23.352;2023-03-26T12:07:52;94235.94;;;14.86;31.02
56831;BME280;42713;42.676;23.352;2023-03-26T12:10:38;94223.81;;;14.85;30.92
56831;BME280;42713;42.676;23.352;2023-03-26T12:13:27;94224.72;;;14.75;30.92
56831;BME280;42713;42.676;23.352;2023-03-26T12:15:57;94224.28;;;14.92;31.05
56831;BME280;42713;42.676;23.352;2023-03-26T12:18:26;94227.53;;;15.08;29.79
56831;BME280;42713;42.676;23.352;2023-03-26T12:23:42;94205.28;;;15.15;28.29
56831;BME280;42713;42.676;23.352;2023-03-26T12:26:41;94204.34;;;15.05;27.70
56831;BME280;42713;42.676;23.352;2023-03-26T12:29:17;94195.66;;;15.24;27.83
56831;BME280;42713;42.676;23.352;2023-03-26T12:32:08;94197.19;;;15.49;27.88
56831;BME280;42713;42.676;23.352;2023-03-26T12:34:38;94196.59;;;15.71;27.48
56831;BME280;42713;42.676;23.352;2023-03-26T12:37:06;94187.50;;;15.78;26.72
56831;BME280;42713;42.676;23.352;2023-03-26T12:39:41;94182.00;;;15.74;26.85
56831;BME280;42713;42.676;23.352;2023-03-26T12:42:28;94170.03;;;15.63;26.64
56831;BME280;42713;42.676;23.352;2023-03-26T12:44:57;94170.28;;;15.66;29.56
56831;BME280;42713;42.676;23.352;2023-03-26T12:47:29;94173.59;;;15.91;28.66
56831;BME280;42713;42.676;23.352;2023-03-26T12:49:56;94176.28;;;16.05;27.75
56831;BME280;42713;42.676;23.352;2023-03-26T12:55:16;94179.75;;;15.86;26.12
56831;BME280;42713;42.676;23.352;2023-03-26T13:06:24;94158.00;;;16.09;25.83
56831;BME280;42713;42.676;23.352;2023-03-26T13:09:06;94176.47;;;16.09;25.75
56831;BME280;42713;42.676;23.352;2023-03-26T13:17:03;94150.44;;;16.02;26.85
56831;BME280;42713;42.676;23.352;2023-03-26T13:20:00;94150.28;;;16.26;25.29
56831;BME280;42713;42.676;23.352;2023-03-26T13:22:44;94149.88;;;16.05;24.12
56831;BME280;42713;42.676;23.352;2023-03-26T13:38:48;94159.00;;;16.83;23.58
56831;BME280;42713;42.676;23.352;2023-03-26T13:41:50;94146.19;;;16.76;23.74
56831;BME280;42713;42.676;23.352;2023-03-26T13:47:30;94137.06;;;17.10;22.52
56831;BME280;42713;42.676;23.352;2023-03-26T13:52:42;94135.63;;;16.90;22.03
56831;BME280;42713;42.676;23.352;2023-03-26T13:58:10;94121.66;;;17.49;22.70
56831;BME280;42713;42.676;23.352;2023-03-26T14:07:14;94121.81;;;17.75;21.40
56831;BME280;42713;42.676;23.352;2023-03-26T14:10:09;94118.03;;;18.13;22.27
56831;BME280;42713;42.676;23.352;2023-03-26T14:17:57;94106.63;;;18.52;20.65
56831;BME280;42713;42.676;23.352;2023-03-26T14:20:46;94095.63;;;18.77;21.70
56831;BME280;42713;42.676;23.352;2023-03-26T14:49:04;94081.34;;;20.52;20.38
56831;BME280;42713;42.676;23.352;2023-03-26T14:51:46;94084.38;;;21.02;20.38
56831;BME280;42713;42.676;23.352;2023-03-26T14:54:21;94089.47;;;21.70;19.88
56831;BME280;42713;42.676;23.352;2023-03-26T15:08:07;94081.34;;;20.91;19.19
56831;BME280;42713;42.676;23.352;2023-03-26T15:41:54;94099.28;;;20.64;19.06
56831;BME280;42713;42.676;23.352;2023-03-26T15:44:41;94095.03;;;21.02;19.99
56831;BME280;42713;42.676;23.352;2023-03-26T15:47:24;94100.22;;;20.98;20.00
56831;BME280;42713;42.676;23.352;2023-03-26T15:50:29;94087.63;;;21.28;20.24
56831;BME280;42713;42.676;23.352;2023-03-26T15:56:21;94102.72;;;21.24;18.38
56831;BME280;42713;42.676;23.352;2023-03-26T16:01:56;94094.19;;;21.31;19.29
56831;BME280;42713;42.676;23.352;2023-03-26T16:04:48;94096.66;;;21.15;20.03
56831;BME280;42713;42.676;23.352;2023-03-26T16:12:53;94095.84;;;20.63;20.15
56831;BME280;42713;42.676;23.352;2023-03-26T16:15:25;94097.06;;;20.36;21.25
56831;BME280;42713;42.676;23.352;2023-03-26T16:23:33;94111.09;;;20.06;21.23
56831;BME280;42713;42.676;23.352;2023-03-26T16:33:49;94109.69;;;18.77;22.20
56831;BME280;42713;42.676;23.352;2023-03-26T16:39:16;94118.53;;;18.64;23.20
56831;BME280;42713;42.676;23.352;2023-03-26T16:52:13;94126.03;;;18.22;23.44
56831;BME280;42713;42.676;23.352;2023-03-26T16:55:12;94127.88;;;18.21;24.28
56831;BME280;42713;42.676;23.352;2023-03-26T16:58:07;94121.22;;;18.32;24.29
56831;BME280;42713;42.676;23.352;2023-03-26T17:00:46;94124.00;;;18.27;23.26
56831;BME280;42713;42.676;23.352;2023-03-26T17:03:46;94126.09;;;18.08;23.34
56831;BME280;42713;42.676;23.352;2023-03-26T17:06:29;94122.31;;;18.00;24.03
56831;BME280;42713;42.676;23.352;2023-03-26T17:12:24;94127.25;;;17.93;24.60
56831;BME280;42713;42.676;23.352;2023-03-26T17:15:16;94127.25;;;17.93;24.22
56831;BME280;42713;42.676;23.352;2023-03-26T17:23:44;94138.22;;;18.00;24.64
56831;BME280;42713;42.676;23.352;2023-03-26T17:26:38;94138.09;;;18.05;24.67
56831;BME280;42713;42.676;23.352;2023-03-26T17:32:11;94141.22;;;17.84;25.52
56831;BME280;42713;42.676;23.352;2023-03-26T17:44:46;94136.41;;;17.64;26.33
56831;BME280;42713;42.676;23.352;2023-03-26T17:47:37;94135.63;;;17.63;26.74
56831;BME280;42713;42.676;23.352;2023-03-26T17:50:20;94129.84;;;17.61;26.71
56831;BME280;42713;42.676;23.352;2023-03-26T17:52:56;94122.97;;;17.60;27.09
56831;BME280;42713;42.676;23.352;2023-03-26T17:55:30;94128.91;;;17.57;27.29
56831;BME280;42713;42.676;23.352;2023-03-26T17:58:36;94129.31;;;17.50;26.71
56831;BME280;42713;42.676;23.352;2023-03-26T18:01:22;94127.06;;;17.43;26.92
56831;BME280;42713;42.676;23.352;2023-03-26T18:03:53;94134.16;;;17.34;27.06
56831;BME280;42713;42.676;23.352;2023-03-26T18:15:40;94119.75;;;16.90;28.54
56831;BME280;42713;42.676;23.352;2023-03-26T18:18:14;94124.34;;;16.84;28.99
56831;BME280;42713;42.676;23.352;2023-03-26T18:20:45;94123.56;;;16.84;29.34
56831;BME280;42713;42.676;23.352;2023-03-26T18:23:35;94128.75;;;16.89;29.66
56831;BME280;42713;42.676;23.352;2023-03-26T18:26:13;94131.88;;;16.91;29.54
56831;BME280;42713;42.676;23.352;2023-03-26T18:28:49;94125.03;;;16.90;29.81
56831;BME280;42713;42.676;23.352;2023-03-26T18:31:18;94126.88;;;16.89;29.97
56831;BME280;42713;42.676;23.352;2023-03-26T18:33:47;94115.25;;;16.76;29.82
56831;BME280;42713;42.676;23.352;2023-03-26T18:36:14;94117.91;;;16.76;30.09
56831;BME280;42713;42.676;23.352;2023-03-26T18:38:41;94123.00;;;16.73;30.35
56831;BME280;42713;42.676;23.352;2023-03-26T18:41:19;94108.59;;;16.65;30.28
56831;BME280;42713;42.676;23.352;2023-03-26T18:43:47;94099.97;;;16.59;30.23
56831;BME280;42713;42.676;23.352;2023-03-26T18:46:13;94109.78;;;16.59;29.99
56831;BME280;42713;42.676;23.352;2023-03-26T18:48:39;94097.91;;;16.56;30.08
56831;BME280;42713;42.676;23.352;2023-03-26T18:51:06;94093.06;;;16.49;30.06
56831;BME280;42713;42.676;23.352;2023-03-26T18:53:39;94087.84;;;16.44;29.72
56831;BME280;42713;42.676;23.352;2023-03-26T18:58:55;94088.84;;;16.21;29.32
56831;BME280;42713;42.676;23.352;2023-03-26T19:01:24;94092.63;;;16.14;29.64
56831;BME280;42713;42.676;23.352;2023-03-26T19:03:58;94081.38;;;16.09;29.94
56831;BME280;42713;42.676;23.352;2023-03-26T19:06:28;94072.75;;;16.03;29.40
56831;BME280;42713;42.676;23.352;2023-03-26T19:08:54;94075.41;;;16.03;29.79
56831;BME280;42713;42.676;23.352;2023-03-26T19:11:21;94064.75;;;15.94;29.50
56831;BME280;42713;42.676;23.352;2023-03-26T19:14:13;94065.31;;;15.91;30.30
56831;BME280;42713;42.676;23.352;2023-03-26T19:16:40;94056.03;;;15.94;30.04
56831;BME280;42713;42.676;23.352;2023-03-26T19:19:15;94063.38;;;15.97;30.06
56831;BME280;42713;42.676;23.352;2023-03-26T19:21:43;94051.81;;;15.93;29.54
56831;BME280;42713;42.676;23.352;2023-03-26T19:24:09;94064.06;;;15.89;29.47
56831;BME280;42713;42.676;23.352;2023-03-26T19:26:36;94046.50;;;15.79;28.73
56831;BME280;42713;42.676;23.352;2023-03-26T19:29:02;94047.88;;;15.76;29.26
56831;BME280;42713;42.676;23.352;2023-03-26T19:31:35;94044.34;;;15.67;29.64
56831;BME280;42713;42.676;23.352;2023-03-26T19:34:12;94039.06;;;15.67;28.75
56831;BME280;42713;42.676;23.352;2023-03-26T19:39:23;94036.28;;;15.58;29.30